createdAt,value
2023-01-11T00:00:34.264Z,86.30
2023-01-11T00:04:16.026Z,86.20
2023-01-11T00:07:58.649Z,86.20
2023-01-11T00:11:40.575Z,86.10
2023-01-11T00:15:22.247Z,86.50
2023-01-11T00:19:05.182Z,86.50
2023-01-11T00:22:46.858Z,86.30
2023-01-11T00:26:28.721Z,86.60
2023-01-11T00:30:11.579Z,86.80
2023-01-11T00:33:53.328Z,86.70
2023-01-11T00:37:35.035Z,86.70
2023-01-11T00:41:35.351Z,87.60
2023-01-11T00:45:35.735Z,86.90
2023-01-11T00:49:17.680Z,87.20
2023-01-11T00:52:59.433Z,87.00
2023-01-11T00:56:41.127Z,87.00
2023-01-11T01:00:23.045Z,86.80
2023-01-11T01:04:04.907Z,86.80
2023-01-11T01:07:46.731Z,86.90
2023-01-11T01:11:28.699Z,86.90
2023-01-11T01:15:10.851Z,86.90
2023-01-11T01:18:53.552Z,86.80
2023-01-11T01:22:35.305Z,86.90
2023-01-11T01:26:16.975Z,86.60
2023-01-11T01:29:58.914Z,86.60
2023-01-11T01:33:40.698Z,86.70
2023-01-11T01:37:22.359Z,86.40
2023-01-11T01:41:04.460Z,86.50
2023-01-11T01:44:59.445Z,87.20
2023-01-11T01:48:41.485Z,86.40
2023-01-11T01:52:29.048Z,86.60
2023-01-11T01:56:13.883Z,86.70
2023-01-11T01:59:56.451Z,86.90
2023-01-11T02:03:38.141Z,87.00
2023-01-11T02:07:26.962Z,87.00
2023-01-11T02:11:28.930Z,87.20
2023-01-11T02:15:11.654Z,87.00
2023-01-11T02:18:54.639Z,87.00
2023-01-11T02:23:10.986Z,87.10
2023-01-11T02:27:15.814Z,87.00
2023-01-11T02:31:23.520Z,86.70
2023-01-11T02:35:21.189Z,86.70
2023-01-11T02:39:14.309Z,86.90
2023-01-11T02:43:32.353Z,87.10
2023-01-11T02:47:18.815Z,87.20
2023-01-11T02:51:11.233Z,87.30
2023-01-11T02:54:55.642Z,87.30
2023-01-11T02:58:38.944Z,87.40
2023-01-11T03:02:20.686Z,87.40
2023-01-11T03:06:11.402Z,87.40
2023-01-11T03:10:08.334Z,87.50
2023-01-11T03:14:02.427Z,87.60
2023-01-11T03:18:03.049Z,87.80
2023-01-11T03:22:03.581Z,88.00
2023-01-11T03:26:11.287Z,88.20
2023-01-11T03:30:27.220Z,88.40
2023-01-11T03:34:35.062Z,88.40
2023-01-11T03:38:20.888Z,88.60
2023-01-11T03:42:04.207Z,88.70
2023-01-11T03:46:05.124Z,88.90
2023-01-11T03:49:50.238Z,89.30
2023-01-11T03:53:32.880Z,89.40
2023-01-11T03:57:22.592Z,89.50
2023-01-11T04:01:04.623Z,89.70
2023-01-11T04:04:46.508Z,89.50
2023-01-11T04:08:28.225Z,89.30
2023-01-11T04:12:09.978Z,89.10
2023-01-11T04:15:53.540Z,89.00
2023-01-11T04:19:35.358Z,88.80
2023-01-11T04:23:17.040Z,88.60
2023-01-11T04:26:58.743Z,88.60
2023-01-11T04:30:40.734Z,88.20
2023-01-11T04:34:22.422Z,87.90
2023-01-11T04:38:04.179Z,87.80
2023-01-11T04:42:05.631Z,87.70
2023-01-11T04:45:47.354Z,87.40
2023-01-11T04:49:31.292Z,87.10
2023-01-11T04:53:12.967Z,86.80
2023-01-11T04:56:54.627Z,86.90
2023-01-11T05:00:36.342Z,86.90
2023-01-11T05:04:18.106Z,86.90
2023-01-11T05:07:59.832Z,86.80
2023-01-11T05:11:41.835Z,86.90
2023-01-11T05:15:23.508Z,86.80
2023-01-11T05:19:06.451Z,87.00
2023-01-11T05:22:48.440Z,87.10
2023-01-11T05:26:34.619Z,87.30
2023-01-11T05:30:17.164Z,87.40
2023-01-11T05:33:59.004Z,87.70
2023-01-11T05:37:40.668Z,88.00
2023-01-11T05:41:24.863Z,88.30
2023-01-11T05:45:25.971Z,89.00
2023-01-11T05:49:07.915Z,88.50
2023-01-11T05:52:49.642Z,88.50
2023-01-11T05:56:31.377Z,88.60
2023-01-11T06:00:13.907Z,89.10
2023-01-11T06:03:55.581Z,89.80
2023-01-11T06:07:37.503Z,89.20
2023-01-11T06:11:19.458Z,88.60
2023-01-11T06:15:01.187Z,89.30
2023-01-11T06:18:46.091Z,88.50
2023-01-11T06:22:27.770Z,89.00
2023-01-11T06:26:11.433Z,88.50
2023-01-11T06:29:53.343Z,88.60
2023-01-11T06:33:35.279Z,88.60
2023-01-11T06:37:17.023Z,88.80
2023-01-11T06:41:00.505Z,88.90
2023-01-11T06:44:42.276Z,88.90
2023-01-11T06:48:24.161Z,89.10
2023-01-11T06:52:05.935Z,89.30
2023-01-11T06:55:51.587Z,89.50
2023-01-11T06:59:34.492Z,89.90
2023-01-11T07:03:16.202Z,90.00
2023-01-11T07:06:58.018Z,90.00
2023-01-11T07:10:39.997Z,90.00
2023-01-11T07:14:22.137Z,90.10
2023-01-11T07:18:03.950Z,90.20
2023-01-11T07:21:45.953Z,90.20
2023-01-11T07:25:30.795Z,90.50
2023-01-11T07:29:12.633Z,90.30
2023-01-11T07:32:54.712Z,90.30
2023-01-11T07:36:39.471Z,90.30
2023-01-11T07:40:21.446Z,90.30
2023-01-11T07:44:03.186Z,90.30
2023-01-11T07:47:44.884Z,90.30
2023-01-11T07:51:26.802Z,90.30
2023-01-11T07:55:08.960Z,90.50
2023-01-11T07:58:50.692Z,90.20
2023-01-11T08:02:32.478Z,90.20
2023-01-11T08:06:17.002Z,90.10
2023-01-11T08:09:58.866Z,90.20
2023-01-11T08:13:59.105Z,90.10
2023-01-11T08:17:40.875Z,90.10
2023-01-11T08:21:22.715Z,90.10
2023-01-11T08:25:04.844Z,90.10
2023-01-11T08:28:46.806Z,90.10
2023-01-11T08:32:29.235Z,90.10
2023-01-11T08:36:11.585Z,90.00
2023-01-11T08:39:55.849Z,89.60
2023-01-11T08:43:38.300Z,89.60
2023-01-11T08:47:19.968Z,89.50
2023-01-11T08:51:01.724Z,89.30
2023-01-11T08:54:43.450Z,89.10
2023-01-11T08:58:25.544Z,88.90
2023-01-11T09:02:07.437Z,88.40
2023-01-11T09:05:49.098Z,88.40
2023-01-11T09:09:32.056Z,88.90
2023-01-11T09:13:13.763Z,88.00
2023-01-11T09:16:55.585Z,88.00
2023-01-11T09:20:37.388Z,88.50
2023-01-11T09:24:19.209Z,87.80
2023-01-11T09:28:00.911Z,87.50
2023-01-11T09:31:42.787Z,87.20
2023-01-11T09:35:24.572Z,87.30
2023-01-11T09:39:10.382Z,87.20
2023-01-11T09:42:59.884Z,87.10
2023-01-11T09:46:42.992Z,87.30
2023-01-11T09:50:36.074Z,87.20
2023-01-11T09:54:20.988Z,86.80
2023-01-11T09:58:28.263Z,87.20
2023-01-11T10:02:24.351Z,86.40
2023-01-11T10:06:10.560Z,87.00
2023-01-11T10:18:22.340Z,86.50
2023-01-11T10:19:18.331Z,86.50
2023-01-11T10:23:01.109Z,86.00
2023-01-11T10:26:42.902Z,86.00
2023-01-11T10:30:52.149Z,86.10
2023-01-11T10:34:56.917Z,85.40
2023-01-11T10:38:57.833Z,85.70
2023-01-11T10:43:17.927Z,84.90
2023-01-11T10:47:00.020Z,84.50
2023-01-11T10:50:42.561Z,85.20
2023-01-11T10:54:27.556Z,84.70
2023-01-11T10:58:47.549Z,84.70
2023-01-11T11:02:59.310Z,84.30
2023-01-11T11:07:14.218Z,84.30
2023-01-11T11:11:13.531Z,83.90
2023-01-11T11:15:01.130Z,83.50
2023-01-11T11:18:43.071Z,83.80
2023-01-11T11:22:24.919Z,83.40
2023-01-11T11:26:06.676Z,83.90
2023-01-11T11:29:57.013Z,83.50
2023-01-11T11:33:39.364Z,84.00
2023-01-11T11:37:23.124Z,84.90
2023-01-11T11:41:12.117Z,85.30
2023-01-11T11:45:15.006Z,84.20
2023-01-11T11:49:18.638Z,94.70
2023-01-11T11:53:03.547Z,91.70
2023-01-11T11:56:45.228Z,92.30
2023-01-11T12:00:31.364Z,92.30
2023-01-11T12:04:18.198Z,92.20
2023-01-11T12:07:59.896Z,92.90
2023-01-11T12:11:42.292Z,86.40
2023-01-11T12:15:28.842Z,90.30
2023-01-11T12:19:30.246Z,93.50
2023-01-11T12:23:18.818Z,86.60
2023-01-11T12:27:00.525Z,92.40
2023-01-11T12:30:51.335Z,92.40
2023-01-11T12:34:51.919Z,86.30
2023-01-11T12:38:55.787Z,85.80
2023-01-11T12:42:41.772Z,86.50
2023-01-11T12:46:32.371Z,86.80
2023-01-11T12:50:33.957Z,87.00
2023-01-11T12:54:41.517Z,86.90
2023-01-11T12:58:23.200Z,86.90
2023-01-11T13:02:07.754Z,86.90
2023-01-11T13:06:07.364Z,86.80
2023-01-11T13:09:57.080Z,86.50
2023-01-11T13:13:59.410Z,86.30
2023-01-11T13:18:16.223Z,93.00
2023-01-11T13:21:57.997Z,93.30
2023-01-11T13:25:41.137Z,93.30
2023-01-11T13:29:31.833Z,93.30
2023-01-11T13:33:17.467Z,93.20
2023-01-11T13:37:20.170Z,93.40
2023-01-11T13:41:13.517Z,91.60
2023-01-11T13:45:09.389Z,90.90
2023-01-11T13:48:57.171Z,86.30
2023-01-11T13:53:03.807Z,86.60
2023-01-11T13:56:54.989Z,87.10
2023-01-11T14:00:55.606Z,87.50
2023-01-11T14:04:55.948Z,87.80
2023-01-11T14:09:08.975Z,88.10
2023-01-11T14:13:42.906Z,88.20
2023-01-11T14:17:40.061Z,88.80
2023-01-11T14:21:27.393Z,88.70
2023-01-11T14:25:42.559Z,98.60
2023-01-11T14:29:42.938Z,97.40
2023-01-11T14:33:43.223Z,90.80
2023-01-11T14:37:40.095Z,91.60
2023-01-11T14:42:00.401Z,91.90
2023-01-11T14:45:52.202Z,92.70
2023-01-11T14:49:57.832Z,92.80
2023-01-11T14:53:46.121Z,92.90
2023-01-11T14:57:43.735Z,93.10
2023-01-11T15:01:25.536Z,93.40
2023-01-11T15:05:07.907Z,93.30
2023-01-11T15:08:52.244Z,93.40
2023-01-11T15:12:42.938Z,93.50
2023-01-11T15:16:52.883Z,93.70
2023-01-11T15:20:34.744Z,93.80
2023-01-11T15:24:22.537Z,93.60
2023-01-11T15:28:25.074Z,93.60
2023-01-11T15:32:17.120Z,93.30
2023-01-11T15:36:03.543Z,93.20
2023-01-11T15:39:48.030Z,93.10
2023-01-11T15:43:51.738Z,93.00
2023-01-11T15:47:58.469Z,93.00
2023-01-11T15:52:11.691Z,92.80
2023-01-11T15:56:14.374Z,92.40
2023-01-11T16:00:14.851Z,92.20
2023-01-11T16:04:19.009Z,92.10
2023-01-11T16:08:03.292Z,92.00
2023-01-11T16:11:51.162Z,92.20
2023-01-11T16:15:59.717Z,91.70
2023-01-11T16:19:44.769Z,91.40
2023-01-11T16:23:26.442Z,91.40
2023-01-11T16:27:10.476Z,91.30
2023-01-11T16:31:02.951Z,91.30
2023-01-11T16:34:46.984Z,91.10
2023-01-11T16:38:28.697Z,91.10
2023-01-11T16:42:11.164Z,91.20
2023-01-11T16:45:56.140Z,91.00
2023-01-11T16:49:40.031Z,91.10
2023-01-11T16:53:21.720Z,90.90
2023-01-11T16:57:03.467Z,91.10
2023-01-11T17:01:02.797Z,90.80
2023-01-11T17:04:50.025Z,90.60
2023-01-11T17:08:32.583Z,90.60
2023-01-11T17:12:24.899Z,90.60
2023-01-11T17:16:09.891Z,90.30
2023-01-11T17:19:53.249Z,90.40
2023-01-11T17:23:34.989Z,90.40
2023-01-11T17:27:22.809Z,90.40
2023-01-11T17:31:04.981Z,90.30
2023-01-11T17:34:46.744Z,90.30
2023-01-11T17:38:28.709Z,90.30
2023-01-11T17:42:31.261Z,90.40
2023-01-11T17:46:16.896Z,90.40
2023-01-11T17:50:00.474Z,90.40
2023-01-11T17:53:42.160Z,90.40
2023-01-11T17:57:23.822Z,90.40
2023-01-11T18:01:08.810Z,90.60
2023-01-11T18:04:58.241Z,90.70
2023-01-11T18:08:41.273Z,90.70
2023-01-11T18:12:33.366Z,90.80
2023-01-11T18:16:19.525Z,90.80
2023-01-11T18:20:03.874Z,90.80
2023-01-11T18:23:45.572Z,90.80
2023-01-11T18:27:29.287Z,90.70
2023-01-11T18:31:12.275Z,90.80
2023-01-11T18:34:54.557Z,90.80
2023-01-11T18:38:36.513Z,90.60
2023-01-11T18:42:20.126Z,90.60
2023-01-11T18:46:01.860Z,90.60
2023-01-11T18:49:43.815Z,90.70
2023-01-11T18:53:25.547Z,90.80
2023-01-11T18:57:07.444Z,90.80
2023-01-11T19:00:49.392Z,91.00
2023-01-11T19:04:31.186Z,91.00
2023-01-11T19:08:12.904Z,91.10
2023-01-11T19:11:54.859Z,91.10
2023-01-11T19:15:36.632Z,91.10
2023-01-11T19:19:18.375Z,91.10
2023-01-11T19:23:00.046Z,91.20
2023-01-11T19:26:41.787Z,91.10
2023-01-11T19:30:24.875Z,91.10
2023-01-11T19:34:06.532Z,91.10
2023-01-11T19:37:48.214Z,91.10
2023-01-11T19:41:50.140Z,91.00
2023-01-11T19:45:31.805Z,91.10
2023-01-11T19:49:13.772Z,91.20
2023-01-11T19:52:55.588Z,91.10
2023-01-11T19:56:37.263Z,91.10
2023-01-11T20:00:20.483Z,91.10
2023-01-11T20:04:02.236Z,91.30
2023-01-11T20:07:43.967Z,91.30
2023-01-11T20:11:25.783Z,91.30
2023-01-11T20:15:08.469Z,91.30
2023-01-11T20:18:54.056Z,91.30
2023-01-11T20:22:35.910Z,91.30
2023-01-11T20:26:17.707Z,91.30
2023-01-11T20:29:59.431Z,91.30
2023-01-11T20:33:41.132Z,91.30
2023-01-11T20:37:22.914Z,91.40
2023-01-11T20:41:11.953Z,91.30
2023-01-11T20:44:53.669Z,91.40
2023-01-11T20:48:36.141Z,91.40
2023-01-11T20:52:17.907Z,91.40
2023-01-11T20:55:59.598Z,91.40
2023-01-11T20:59:41.423Z,91.40
2023-01-11T21:03:24.244Z,91.50
2023-01-11T21:07:06.045Z,91.40
2023-01-11T21:10:48.141Z,91.40
2023-01-11T21:14:30.532Z,91.30
2023-01-11T21:18:12.223Z,91.30
2023-01-11T21:21:54.988Z,91.50
2023-01-11T21:25:36.747Z,91.20
2023-01-11T21:29:18.765Z,91.10
2023-01-11T21:33:00.508Z,91.10
2023-01-11T21:36:43.016Z,91.10
2023-01-11T21:40:24.699Z,91.00
2023-01-11T21:44:07.391Z,91.00
2023-01-11T21:47:49.094Z,91.00
2023-01-11T21:51:31.089Z,90.90
2023-01-11T21:55:12.829Z,91.00
2023-01-11T21:58:54.627Z,91.00
2023-01-11T22:02:36.315Z,91.30
2023-01-11T22:06:18.093Z,91.10
2023-01-11T22:10:04.975Z,91.10
2023-01-11T22:13:47.005Z,91.10
2023-01-11T22:17:28.734Z,91.20
2023-01-11T22:21:14.329Z,91.30
2023-01-11T22:24:56.073Z,91.40
2023-01-11T22:28:56.428Z,91.40
2023-01-11T22:32:38.660Z,91.40
2023-01-11T22:36:20.666Z,91.60
2023-01-11T22:40:02.470Z,91.70
2023-01-11T22:43:44.392Z,91.80
2023-01-11T22:47:26.061Z,91.90
2023-01-11T22:51:09.070Z,92.00
2023-01-11T22:54:50.830Z,92.20
2023-01-11T22:58:32.759Z,92.20
2023-01-11T23:02:14.483Z,92.40
2023-01-11T23:05:56.510Z,92.40
2023-01-11T23:09:38.368Z,92.60
2023-01-11T23:13:38.545Z,92.90
2023-01-11T23:17:20.589Z,92.90
2023-01-11T23:21:04.021Z,92.80
2023-01-11T23:24:45.789Z,92.80
2023-01-11T23:28:29.843Z,92.80
2023-01-11T23:32:11.529Z,92.90
2023-01-11T23:35:57.645Z,93.00
2023-01-11T23:39:39.591Z,93.10
2023-01-11T23:43:21.318Z,93.10
2023-01-11T23:47:21.588Z,93.10
2023-01-11T23:51:05.026Z,93.20
2023-01-11T23:54:46.855Z,93.10
2023-01-11T23:58:31.661Z,93.20
